Time;durP1;ratioP1;P1;durP2;ratioP2;P2;SDS_P1;SDS_P2;PMS_P1;PMS_P2;Temp;Humidity;BMP_temperature;BMP_pressure;BME280_temperature;BME280_humidity;BME280_pressure;Samples;Min_cycle;Max_cycle;Signal;HPM_P1;HPM_P2
2022/04/10 00:02:05;;;;;;;;;;;;;;;8.05;77.46;97711.56;5093910;28;19928;-60
2022/04/10 00:04:30;;;;;;;;;;;;;;;8.05;77.66;97704.44;5094561;28;19931;-60
2022/04/10 00:06:56;;;;;;;;;;;;;;;8.02;78.15;97704.16;5094622;28;20015;-60
2022/04/10 00:09:21;;;;;;;;;;;;;;;8.03;78.19;97703.91;5094290;28;19928;-60
2022/04/10 00:11:47;;;;;;;;;;;;;;;8.01;78.15;97694.69;5094403;28;19924;-60
2022/04/10 00:14:13;;;;;;;;;;;;;;;7.99;78.81;97696.78;5091005;28;19928;-59
2022/04/10 00:16:39;;;;;;;;;;;;;;;7.95;78.74;97688.59;5094660;28;19919;-59
2022/04/10 00:19:05;;;;;;;;;;;;;;;7.97;79.10;97704.94;5093817;28;20027;-59
2022/04/10 00:21:31;;;;;;;;;;;;;;;7.97;78.40;97694.38;5094194;28;19931;-60
2022/04/10 00:23:57;;;;;;;;;;;;;;;7.94;78.57;97681.72;5094048;28;20019;-61
2022/04/10 00:26:23;;;;;;;;;;;;;;;7.95;79.28;97689.38;5094413;28;20022;-60
2022/04/10 00:28:48;;;;;;;;;;;;;;;7.92;79.25;97686.47;5093495;28;19928;-62
2022/04/10 00:31:14;;;;;;;;;;;;;;;7.86;79.37;97669.06;5092812;28;19924;-61
2022/04/10 00:33:39;;;;;;;;;;;;;;;7.89;79.92;97677.25;5084503;28;20340;-63
2022/04/10 00:36:05;;;;;;;;;;;;;;;7.85;79.63;97670.09;5073922;28;20335;-61
2022/04/10 00:38:31;;;;;;;;;;;;;;;7.87;80.16;97671.44;5084878;28;19928;-60
2022/04/10 00:40:56;;;;;;;;;;;;;;;7.88;79.51;97667.75;5092554;28;19931;-60
2022/04/10 00:43:28;;;;;;;;;;;;;;;7.87;79.22;97666.16;5092379;28;19963;-59
2022/04/10 00:45:56;;;;;;;;;;;;;;;7.86;79.50;97658.50;5078604;28;19924;-59
2022/04/10 00:48:22;;;;;;;;;;;;;;;7.85;79.40;97660.38;5072327;28;19932;-60
2022/04/10 00:51:40;;;;;;;;;;;;;;;7.86;79.40;97663.78;5071239;28;19928;-60
2022/04/10 00:53:33;;;;;;;;;;;;;;;7.85;79.88;97660.38;5078902;28;19927;-60
2022/04/10 00:55:58;;;;;;;;;;;;;;;7.86;79.56;97658.50;5075388;28;20310;-60
2022/04/10 00:58:24;;;;;;;;;;;;;;;7.87;79.34;97658.22;5091052;28;19934;-60
2022/04/10 01:00:49;;;;;;;;;;;;;;;7.83;79.04;97662.47;5091206;28;20310;-60
2022/04/10 01:03:15;;;;;;;;;;;;;;;7.90;79.33;97665.63;5092209;28;20596;-61
2022/04/10 01:05:41;;;;;;;;;;;;;;;7.89;78.99;97658.00;5092196;28;19928;-59
2022/04/10 01:08:07;;;;;;;;;;;;;;;7.92;79.88;97652.97;5075003;28;19929;-60
2022/04/10 01:10:32;;;;;;;;;;;;;;;7.89;78.83;97658.00;5076787;28;19951;-61
2022/04/10 01:12:58;;;;;;;;;;;;;;;7.85;78.81;97655.09;5071603;28;20324;-62
2022/04/10 01:15:25;;;;;;;;;;;;;;;7.81;79.19;97651.38;5091770;28;19946;-60
2022/04/10 01:17:51;;;;;;;;;;;;;;;7.78;79.62;97649.25;5074645;28;20389;-58
2022/04/10 01:20:17;;;;;;;;;;;;;;;7.82;80.36;97650.31;5075039;28;19928;-60
2022/04/10 01:22:47;;;;;;;;;;;;;;;7.84;80.41;97650.06;5075419;28;20216;-59
2022/04/10 01:25:13;;;;;;;;;;;;;;;7.85;80.42;97647.19;5064778;28;20161;-60
2022/04/10 01:27:42;;;;;;;;;;;;;;;7.81;80.32;97642.66;5055325;28;20390;-61
2022/04/10 01:30:09;;;;;;;;;;;;;;;7.84;80.93;97639.50;5071247;28;19924;-59
2022/04/10 01:32:35;;;;;;;;;;;;;;;7.80;80.78;97644.53;5071254;28;19935;-60
2022/04/10 01:35:01;;;;;;;;;;;;;;;7.84;82.96;97642.94;5071122;28;20010;-60
2022/04/10 01:37:31;;;;;;;;;;;;;;;7.83;82.39;97640.56;5071181;28;19934;-60
2022/04/10 01:39:57;;;;;;;;;;;;;;;7.80;82.63;97646.38;5071135;28;19955;-59
2022/04/10 01:42:23;;;;;;;;;;;;;;;7.80;83.25;97641.09;5071221;28;19928;-60
2022/04/10 01:44:49;;;;;;;;;;;;;;;7.82;83.31;97641.59;5056194;28;20357;-61
2022/04/10 01:47:17;;;;;;;;;;;;;;;7.78;83.83;97648.47;5064852;28;19928;-61
2022/04/10 01:49:43;;;;;;;;;;;;;;;7.73;82.35;97634.22;5091159;28;19976;-61
2022/04/10 01:52:08;;;;;;;;;;;;;;;7.85;82.74;97638.44;5091138;28;19928;-61
2022/04/10 01:54:34;;;;;;;;;;;;;;;7.89;81.46;97632.41;5091114;28;19931;-60
2022/04/10 01:57:00;;;;;;;;;;;;;;;7.91;82.27;97630.28;5090360;28;19969;-60
2022/04/10 01:59:28;;;;;;;;;;;;;;;7.96;82.08;97614.44;5091029;28;19924;-60
2022/04/10 02:01:53;;;;;;;;;;;;;;;8.03;81.31;97622.13;5091010;28;20305;-62
2022/04/10 02:04:20;;;;;;;;;;;;;;;8.02;81.79;97615.25;5092536;28;19963;-61
2022/04/10 02:06:46;;;;;;;;;;;;;;;8.04;81.63;97615.00;5092260;28;19924;-60
2022/04/10 02:09:12;;;;;;;;;;;;;;;8.04;81.13;97613.13;5090948;28;19958;-62
2022/04/10 02:11:39;;;;;;;;;;;;;;;8.02;80.93;97612.59;5090838;28;19963;-60
2022/04/10 02:14:04;;;;;;;;;;;;;;;8.01;80.99;97608.38;5088919;28;19967;-61
2022/04/10 02:16:30;;;;;;;;;;;;;;;8.02;81.14;97606.53;5091078;28;19959;-60
2022/04/10 02:18:56;;;;;;;;;;;;;;;8.03;80.76;97594.91;5091134;28;20424;-60
2022/04/10 02:21:21;;;;;;;;;;;;;;;8.07;80.90;97606.53;5092058;28;19923;-60
2022/04/10 02:23:47;;;;;;;;;;;;;;;8.07;80.64;97601.28;5085120;28;19935;-60
2022/04/10 02:26:12;;;;;;;;;;;;;;;8.07;80.40;97607.34;5072045;28;19924;-60
2022/04/10 02:28:39;;;;;;;;;;;;;;;8.09;80.61;97607.06;5070461;28;19935;-61
2022/04/10 02:31:05;;;;;;;;;;;;;;;8.08;80.63;97608.13;5070619;28;19924;-60
2022/04/10 02:33:33;;;;;;;;;;;;;;;8.08;81.05;97613.41;5085701;28;20344;-61
2022/04/10 02:35:59;;;;;;;;;;;;;;;8.07;80.70;97612.63;5070599;28;20031;-61
2022/04/10 02:38:25;;;;;;;;;;;;;;;8.06;80.86;97607.59;5071884;28;19967;-60
2022/04/10 02:40:50;;;;;;;;;;;;;;;8.08;80.82;97613.41;5070594;28;19964;-62
2022/04/10 02:43:16;;;;;;;;;;;;;;;8.12;80.98;97617.91;5070357;28;19936;-61
2022/04/10 02:45:45;;;;;;;;;;;;;;;8.14;80.51;97614.97;5071930;28;19924;-61
2022/04/10 02:48:10;;;;;;;;;;;;;;;8.16;80.35;97620.78;5070606;28;20327;-61
2022/04/10 02:50:40;;;;;;;;;;;;;;;8.15;80.43;97620.00;5073924;28;19931;-60
2022/04/10 02:53:06;;;;;;;;;;;;;;;8.13;80.07;97618.69;5090173;28;19934;-61
2022/04/10 02:55:33;;;;;;;;;;;;;;;8.18;80.87;97630.03;5090548;28;20313;-60
2022/04/10 02:58:17;;;;;;;;;;;;;;;8.28;80.74;97625.81;5078766;28;19935;-60
2022/04/10 03:01:02;;;;;;;;;;;;;;;8.35;80.16;97628.94;5070525;28;19951;-60
2022/04/10 03:03:48;;;;;;;;;;;;;;;8.30;79.94;97613.94;5070548;28;19974;-62
2022/04/10 03:06:33;;;;;;;;;;;;;;;8.33;80.24;97613.38;5071817;28;20313;-61
2022/04/10 03:09:17;;;;;;;;;;;;;;;8.34;80.36;97611.53;5071377;28;19934;-60
2022/04/10 03:12:04;;;;;;;;;;;;;;;8.33;80.30;97618.66;5070432;28;19985;-60
2022/04/10 03:14:49;;;;;;;;;;;;;;;8.33;79.89;97618.66;5072979;28;19931;-60
2022/04/10 03:17:33;;;;;;;;;;;;;;;8.36;80.08;97623.41;5074033;28;20411;-61
2022/04/10 03:20:19;;;;;;;;;;;;;;;8.23;80.73;97612.59;5073984;28;19959;-61
2022/04/10 03:23:08;;;;;;;;;;;;;;;8.25;80.70;97619.19;5073996;28;19935;-61
2022/04/10 03:25:54;;;;;;;;;;;;;;;8.32;80.96;97614.44;5073927;28;19967;-60
2022/04/10 03:28:39;;;;;;;;;;;;;;;8.39;80.41;97619.50;5074932;28;19935;-61
2022/04/10 03:31:23;;;;;;;;;;;;;;;8.35;79.56;97619.22;5075246;28;19932;-61
2022/04/10 03:34:09;;;;;;;;;;;;;;;8.31;80.52;97623.41;5076744;28;19934;-60
2022/04/10 03:36:54;;;;;;;;;;;;;;;8.32;80.59;97619.72;5094360;28;19936;-60
2022/04/10 03:39:39;;;;;;;;;;;;;;;8.29;80.99;97619.44;5094022;28;19931;-60
2022/04/10 03:42:23;;;;;;;;;;;;;;;8.37;80.39;97625.00;5094218;28;19982;-60
2022/04/10 03:45:08;;;;;;;;;;;;;;;8.36;80.41;97620.78;5053666;28;19931;-60
2022/04/10 03:47:52;;;;;;;;;;;;;;;8.36;80.61;97630.56;5053883;28;19988;-61
2022/04/10 03:50:37;;;;;;;;;;;;;;;8.32;80.62;97642.69;5070825;28;19985;-61
2022/04/10 03:53:23;;;;;;;;;;;;;;;8.24;80.94;97645.88;5074807;28;20029;-60
2022/04/10 03:56:07;;;;;;;;;;;;;;;8.20;80.81;97638.47;5073827;28;20388;-61
2022/04/10 03:58:53;;;;;;;;;;;;;;;8.21;81.92;97647.19;5073587;28;20376;-61
2022/04/10 04:01:37;;;;;;;;;;;;;;;8.30;81.58;97645.59;5093167;28;19977;-59
2022/04/10 04:04:22;;;;;;;;;;;;;;;8.34;81.25;97651.94;5064663;28;20508;-61
2022/04/10 04:07:06;;;;;;;;;;;;;;;8.41;80.55;97651.69;5053422;28;19936;-61
2022/04/10 04:09:50;;;;;;;;;;;;;;;8.44;81.06;97658.28;5069876;28;19979;-60
2022/04/10 04:12:35;;;;;;;;;;;;;;;8.37;81.36;97664.59;5073330;28;20422;-61
2022/04/10 04:15:20;;;;;;;;;;;;;;;8.41;81.11;97670.97;5073139;28;19931;-61
2022/04/10 04:18:05;;;;;;;;;;;;;;;8.37;81.03;97664.59;5072996;28;19976;-61
2022/04/10 04:20:50;;;;;;;;;;;;;;;8.36;80.83;97662.22;5073157;28;19977;-61
2022/04/10 04:23:34;;;;;;;;;;;;;;;8.35;80.96;97658.81;5074098;28;19974;-61
2022/04/10 04:26:19;;;;;;;;;;;;;;;8.31;80.80;97668.28;5073156;28;19931;-61
2022/04/10 04:29:04;;;;;;;;;;;;;;;8.31;81.05;97672.78;5073866;28;19936;-60
2022/04/10 04:31:48;;;;;;;;;;;;;;;8.29;81.07;97678.31;5072792;28;20044;-61
2022/04/10 04:34:32;;;;;;;;;;;;;;;8.30;80.90;97677.28;5086221;28;19950;-61
2022/04/10 04:37:17;;;;;;;;;;;;;;;8.21;81.24;97676.22;5078291;28;19934;-61
2022/04/10 04:40:01;;;;;;;;;;;;;;;8.26;81.33;97678.84;5093277;28;19970;-61
2022/04/10 04:42:46;;;;;;;;;;;;;;;8.25;81.27;97677.28;5092385;28;19983;-60
2022/04/10 04:45:32;;;;;;;;;;;;;;;8.25;81.88;97679.13;5090823;28;20439;-60
2022/04/10 04:48:28;;;;;;;;;;;;;;;8.25;81.61;97689.69;5078901;28;19935;-61
2022/04/10 04:51:15;;;;;;;;;;;;;;;8.26;81.42;97681.47;5092642;28;19948;-60
2022/04/10 04:54:04;;;;;;;;;;;;;;;8.28;81.19;97695.22;5092461;28;20301;-60
2022/04/10 04:56:48;;;;;;;;;;;;;;;8.27;81.08;97691.00;5093076;28;20011;-60
2022/04/10 04:59:32;;;;;;;;;;;;;;;8.35;81.67;97698.41;5092445;28;20320;-60
2022/04/10 05:02:17;;;;;;;;;;;;;;;8.43;81.23;97696.31;5092610;28;19986;-60
2022/04/10 05:05:02;;;;;;;;;;;;;;;8.40;80.67;97697.63;5038510;28;20297;-59
2022/04/10 05:07:47;;;;;;;;;;;;;;;8.36;80.98;97712.41;5058333;28;20448;-61
2022/04/10 05:10:32;;;;;;;;;;;;;;;8.32;80.89;97708.69;5072007;28;20001;-61
2022/04/10 05:13:16;;;;;;;;;;;;;;;8.32;81.71;97711.31;5071868;28;20432;-61
2022/04/10 05:16:00;;;;;;;;;;;;;;;8.40;81.75;97718.75;5071949;28;19932;-61
2022/04/10 05:18:50;;;;;;;;;;;;;;;8.43;81.47;97720.06;5074936;28;19935;-62
2022/04/10 05:21:38;;;;;;;;;;;;;;;8.42;81.68;97724.56;5078103;28;20040;-61
2022/04/10 05:24:22;;;;;;;;;;;;;;;8.45;81.08;97728.53;5092085;28;19938;-60
2022/04/10 05:27:06;;;;;;;;;;;;;;;8.50;81.52;97739.91;5091430;28;19935;-61
2022/04/10 05:29:51;;;;;;;;;;;;;;;8.46;80.97;97745.94;5077854;28;19947;-60
2022/04/10 05:32:41;;;;;;;;;;;;;;;8.36;82.08;97744.88;5071388;28;19950;-59
2022/04/10 05:35:26;;;;;;;;;;;;;;;8.36;81.89;97747.50;5071689;28;19930;-60
2022/04/10 05:38:10;;;;;;;;;;;;;;;8.43;82.51;97749.13;5070886;28;19977;-60
2022/04/10 05:40:58;;;;;;;;;;;;;;;8.47;81.82;97758.91;5051622;28;19932;-59
2022/04/10 05:43:45;;;;;;;;;;;;;;;8.47;81.57;97756.28;5058365;28;19934;-60
2022/04/10 05:46:29;;;;;;;;;;;;;;;8.46;82.58;97759.16;5091611;28;19946;-60
2022/04/10 05:49:17;;;;;;;;;;;;;;;8.56;81.81;97767.88;5085521;28;20366;-60
2022/04/10 05:52:02;;;;;;;;;;;;;;;8.53;82.31;97775.53;5091705;28;19973;-60
2022/04/10 05:54:46;;;;;;;;;;;;;;;8.54;81.57;97785.84;5091439;28;20043;-61
2022/04/10 05:57:31;;;;;;;;;;;;;;;8.51;82.07;97783.72;5091269;28;20026;-61
2022/04/10 06:00:15;;;;;;;;;;;;;;;8.56;81.76;97794.31;5089212;28;20027;-61
2022/04/10 06:03:03;;;;;;;;;;;;;;;8.68;81.46;97787.94;5091499;28;19977;-59
2022/04/10 06:05:48;;;;;;;;;;;;;;;8.68;81.34;97794.03;5071389;28;19978;-61
2022/04/10 06:08:40;;;;;;;;;;;;;;;8.68;80.64;97794.03;5091036;28;19950;-60
2022/04/10 06:11:25;;;;;;;;;;;;;;;8.68;80.24;97793.22;5087272;28;20434;-61
2022/04/10 06:14:09;;;;;;;;;;;;;;;8.68;80.03;97801.97;5070231;28;19982;-60
2022/04/10 06:16:35;;;;;;;;;;;;;;;8.69;80.10;97798.25;5070811;28;19924;-60
2022/04/10 06:19:01;;;;;;;;;;;;;;;8.68;79.96;97801.97;5072242;28;19928;-62
2022/04/10 06:21:28;;;;;;;;;;;;;;;8.61;79.44;97812.78;5070595;28;19924;-60
2022/04/10 06:23:53;;;;;;;;;;;;;;;8.47;79.82;97824.09;5070463;28;20027;-63
2022/04/10 06:26:33;;;;;;;;;;;;;;;8.26;81.84;97826.66;5071486;28;20448;-60
2022/04/10 06:29:00;;;;;;;;;;;;;;;8.07;80.78;97839.56;5071418;28;20301;-62
2022/04/10 06:31:40;;;;;;;;;;;;;;;7.92;80.18;97840.28;5070502;28;19944;-60
2022/04/10 06:34:05;;;;;;;;;;;;;;;7.80;79.68;97849.47;5070742;28;19936;-61
2022/04/10 06:36:32;;;;;;;;;;;;;;;7.60;79.23;97866.78;5070624;28;20298;-61
2022/04/10 06:38:58;;;;;;;;;;;;;;;7.44;79.12;97875.63;5070540;28;19928;-60
2022/04/10 06:41:29;;;;;;;;;;;;;;;7.20;78.86;97898.91;5071292;28;19925;-59
2022/04/10 06:43:59;;;;;;;;;;;;;;;6.90;75.99;97912.63;5071148;28;19928;-60
2022/04/10 06:46:45;;;;;;;;;;;;;;;6.55;76.05;97934.91;5070506;28;19925;-61
2022/04/10 06:49:25;;;;;;;;;;;;;;;6.30;77.13;97945.94;5073013;28;19939;-60
2022/04/10 06:51:52;;;;;;;;;;;;;;;6.08;76.82;97957.25;5074354;28;20714;-60
2022/04/10 06:54:25;;;;;;;;;;;;;;;6.02;76.89;97962.69;5081611;28;19977;-59
2022/04/10 06:56:50;;;;;;;;;;;;;;;5.96;76.52;97959.19;5094363;28;20408;-59
2022/04/10 06:59:17;;;;;;;;;;;;;;;6.02;76.75;97967.94;5078260;28;20016;-61
2022/04/10 07:01:43;;;;;;;;;;;;;;;5.95;76.44;97983.09;5074312;28;20228;-60
2022/04/10 07:04:09;;;;;;;;;;;;;;;5.86;76.16;97985.31;5075137;28;19928;-61
2022/04/10 07:06:36;;;;;;;;;;;;;;;5.86;76.33;97986.13;5073700;28;19920;-62
2022/04/10 07:09:01;;;;;;;;;;;;;;;5.91;76.29;97988.00;5073873;28;19936;-59
2022/04/10 07:11:32;;;;;;;;;;;;;;;5.99;75.90;97997.34;5084199;28;19924;-60
2022/04/10 07:13:59;;;;;;;;;;;;;;;5.94;75.91;97992.81;5075739;28;19935;-60
2022/04/10 07:16:25;;;;;;;;;;;;;;;5.90;74.86;98002.19;5073753;28;20296;-59
2022/04/10 07:18:51;;;;;;;;;;;;;;;5.96;75.33;98009.16;5091352;28;19927;-62
2022/04/10 07:23:41;;;;;;;;;;;;;;;5.96;75.35;98014.41;5093627;28;19924;-61
2022/04/10 07:24:06;;;;;;;;;;;;;;;5.95;75.06;98020.72;5093467;28;19928;-59
2022/04/10 07:26:37;;;;;;;;;;;;;;;6.02;74.36;98015.28;5093847;28;19967;-60
2022/04/10 07:29:10;;;;;;;;;;;;;;;6.18;74.99;98008.41;5076916;28;20359;-60
2022/04/10 07:31:36;;;;;;;;;;;;;;;6.33;73.27;98016.53;5061054;28;20018;-61
2022/04/10 07:34:02;;;;;;;;;;;;;;;6.46;73.36;98016.16;5074568;28;19928;-59
2022/04/10 07:36:56;;;;;;;;;;;;;;;6.57;72.68;98025.78;5053891;28;20344;-59
2022/04/10 07:39:25;;;;;;;;;;;;;;;6.73;72.71;98025.94;5053333;28;19932;-59
2022/04/10 07:41:58;;;;;;;;;;;;;;;6.89;72.18;98033.00;5053438;28;19940;-59
2022/04/10 07:44:28;;;;;;;;;;;;;;;6.88;71.06;98034.03;5046146;28;19924;-59
2022/04/10 07:49:38;;;;;;;;;;;;;;;7.07;70.63;98042.41;5093784;28;19931;-59
2022/04/10 07:52:08;;;;;;;;;;;;;;;7.30;70.60;98040.56;5053964;28;19972;-60
2022/04/10 07:54:46;;;;;;;;;;;;;;;7.36;69.51;98058.81;5053089;28;19928;-62
2022/04/10 07:57:12;;;;;;;;;;;;;;;7.31;69.43;98058.75;5053081;28;19929;-60
2022/04/10 07:59:38;;;;;;;;;;;;;;;7.40;69.55;98075.69;5069270;28;20413;-59
2022/04/10 08:02:03;;;;;;;;;;;;;;;7.40;69.02;98088.09;5056467;28;19929;-59
2022/04/10 08:04:33;;;;;;;;;;;;;;;7.34;69.28;98087.25;5093427;28;19928;-56
2022/04/10 08:07:10;;;;;;;;;;;;;;;7.30;69.01;98093.28;5093524;28;19963;-59
2022/04/10 08:09:36;;;;;;;;;;;;;;;7.25;69.12;98099.28;5094325;28;19978;-62
2022/04/10 08:12:01;;;;;;;;;;;;;;;7.05;68.96;98108.53;5075240;28;20460;-60
2022/04/10 08:14:27;;;;;;;;;;;;;;;7.01;69.93;98114.53;5078316;28;19932;-61
2022/04/10 08:16:53;;;;;;;;;;;;;;;6.98;69.84;98126.38;5082733;28;19932;-62
2022/04/10 08:19:18;;;;;;;;;;;;;;;6.96;69.60;98122.38;5056138;28;19924;-58
2022/04/10 08:21:44;;;;;;;;;;;;;;;6.98;69.54;98125.56;5075194;28;19987;-61
2022/04/10 08:24:09;;;;;;;;;;;;;;;7.03;69.76;98128.28;5073821;28;19935;-59
2022/04/10 08:26:35;;;;;;;;;;;;;;;6.85;69.10;98125.91;5075327;28;19931;-60
2022/04/10 08:29:00;;;;;;;;;;;;;;;6.81;68.71;98130.88;5060269;28;19974;-61
2022/04/10 08:31:28;;;;;;;;;;;;;;;6.89;67.53;98140.22;5063119;28;20395;-60
2022/04/10 08:33:53;;;;;;;;;;;;;;;6.98;67.99;98139.53;5091768;28;19939;-63
2022/04/10 08:36:19;;;;;;;;;;;;;;;7.01;68.30;98157.50;5074258;28;19925;-62
2022/04/10 08:38:45;;;;;;;;;;;;;;;7.05;67.57;98158.59;5074182;28;19932;-61
2022/04/10 08:41:11;;;;;;;;;;;;;;;7.08;68.21;98159.16;5091835;28;19927;-60
2022/04/10 08:43:36;;;;;;;;;;;;;;;7.33;66.81;98161.31;5092224;28;19928;-62
2022/04/10 08:46:02;;;;;;;;;;;;;;;7.69;66.30;98173.03;5073625;28;19934;-62
2022/04/10 08:48:28;;;;;;;;;;;;;;;7.86;64.92;98186.94;5092291;28;20381;-63
2022/04/10 08:50:55;;;;;;;;;;;;;;;8.01;65.35;98180.22;5040212;28;20444;-60
2022/04/10 08:53:21;;;;;;;;;;;;;;;7.84;64.72;98182.94;5079993;28;20316;-60
2022/04/10 08:55:47;;;;;;;;;;;;;;;7.92;65.00;98195.69;5082926;28;20343;-60
2022/04/10 08:58:12;;;;;;;;;;;;;;;8.03;63.49;98200.03;5074516;28;19995;-61
2022/04/10 09:00:40;;;;;;;;;;;;;;;8.01;63.29;98210.03;5071717;28;19924;-60
2022/04/10 09:03:06;;;;;;;;;;;;;;;8.09;63.30;98212.22;5073135;28;19935;-61
2022/04/10 09:05:31;;;;;;;;;;;;;;;8.14;64.06;98214.09;5074205;28;19924;-60
2022/04/10 09:08:06;;;;;;;;;;;;;;;7.96;63.47;98223.97;5071505;28;20459;-62
2022/04/10 09:10:59;;;;;;;;;;;;;;;8.19;63.16;98222.09;5057237;28;20166;-60
2022/04/10 09:13:26;;;;;;;;;;;;;;;8.23;63.21;98228.44;5073262;28;19967;-62
2022/04/10 09:15:52;;;;;;;;;;;;;;;8.47;62.96;98236.88;5073179;28;19971;-61
2022/04/10 09:18:17;;;;;;;;;;;;;;;8.66;62.39;98242.56;5071397;28;20418;-60
2022/04/10 09:20:43;;;;;;;;;;;;;;;8.80;61.24;98241.09;5072961;28;19925;-61
2022/04/10 09:23:09;;;;;;;;;;;;;;;8.74;60.88;98243.97;5071348;28;19935;-61
2022/04/10 09:25:41;;;;;;;;;;;;;;;8.52;61.14;98242.19;5072336;28;19924;-60
2022/04/10 09:28:06;;;;;;;;;;;;;;;8.58;61.40;98246.47;5072431;28;19928;-61
2022/04/10 09:30:33;;;;;;;;;;;;;;;8.61;61.02;98242.53;5071299;28;19936;-60
2022/04/10 09:32:59;;;;;;;;;;;;;;;8.59;60.80;98248.09;5072354;28;19928;-61
2022/04/10 09:35:24;;;;;;;;;;;;;;;8.62;61.16;98249.44;5072593;28;20023;-61
2022/04/10 09:37:51;;;;;;;;;;;;;;;8.52;60.63;98255.41;5054491;28;19968;-62
2022/04/10 09:40:26;;;;;;;;;;;;;;;8.70;60.41;98259.50;5071372;28;19924;-61
2022/04/10 09:43:07;;;;;;;;;;;;;;;8.71;60.64;98266.41;5072397;28;19928;-60
2022/04/10 09:45:40;;;;;;;;;;;;;;;8.69;60.13;98265.84;5072359;28;19944;-62
2022/04/10 09:48:17;;;;;;;;;;;;;;;8.81;59.62;98270.97;5070983;28;20023;-62
2022/04/10 09:50:42;;;;;;;;;;;;;;;8.77;59.40;98273.31;5072485;28;19935;-61
2022/04/10 09:53:08;;;;;;;;;;;;;;;8.98;59.13;98271.63;5072090;28;20397;-61
2022/04/10 09:55:34;;;;;;;;;;;;;;;9.16;58.41;98270.41;5071628;28;19970;-62
2022/04/10 09:58:01;;;;;;;;;;;;;;;9.41;58.51;98276.88;5071758;28;19951;-62
2022/04/10 10:00:27;;;;;;;;;;;;;;;9.54;57.89;98279.09;5070626;28;20377;-60
2022/04/10 10:02:52;;;;;;;;;;;;;;;9.36;57.84;98277.66;5072419;28;19939;-61
2022/04/10 10:05:18;;;;;;;;;;;;;;;9.44;58.30;98281.66;5081602;28;19928;-59
2022/04/10 10:07:43;;;;;;;;;;;;;;;9.48;57.94;98286.19;5059007;28;19929;-58
2022/04/10 10:10:09;;;;;;;;;;;;;;;9.53;58.07;98290.72;5067176;28;20451;-58
2022/04/10 10:12:36;;;;;;;;;;;;;;;9.67;57.69;98296.34;5067382;28;19929;-59
2022/04/10 10:15:02;;;;;;;;;;;;;;;9.94;56.77;98304.09;5051952;28;19931;-59
2022/04/10 10:17:28;;;;;;;;;;;;;;;9.90;57.43;98308.34;5052053;28;19956;-60
2022/04/10 10:19:54;;;;;;;;;;;;;;;10.04;56.29;98314.75;5051940;28;20162;-59
2022/04/10 10:22:20;;;;;;;;;;;;;;;9.99;56.61;98317.38;5052488;28;20402;-59
2022/04/10 10:24:57;;;;;;;;;;;;;;;9.92;56.36;98314.19;5051911;28;19939;-59
2022/04/10 10:27:36;;;;;;;;;;;;;;;9.91;57.00;98320.50;5069702;28;19978;-60
2022/04/10 10:30:11;;;;;;;;;;;;;;;9.90;57.48;98329.53;5037582;28;19928;-61
2022/04/10 10:32:41;;;;;;;;;;;;;;;10.03;57.50;98326.41;5070242;28;19928;-60
2022/04/10 10:35:10;;;;;;;;;;;;;;;10.05;56.54;98336.72;5068967;28;20010;-59
2022/04/10 10:37:52;;;;;;;;;;;;;;;9.94;57.16;98323.47;5071600;28;19928;-59
2022/04/10 10:40:18;;;;;;;;;;;;;;;10.01;56.94;98325.88;5070406;28;19924;-59
2022/04/10 10:42:45;;;;;;;;;;;;;;;10.22;54.99;98324.06;5084486;28;20316;-59
2022/04/10 10:45:11;;;;;;;;;;;;;;;10.17;55.37;98330.13;5070231;28;20376;-60
2022/04/10 10:47:36;;;;;;;;;;;;;;;10.20;55.56;98328.81;5071725;28;19934;-59
2022/04/10 10:50:02;;;;;;;;;;;;;;;9.99;56.24;98330.59;5071531;28;19928;-59
2022/04/10 10:52:28;;;;;;;;;;;;;;;10.05;56.36;98324.28;5054672;28;19939;-59
2022/04/10 10:54:54;;;;;;;;;;;;;;;9.93;55.94;98326.34;5087699;28;19932;-60
2022/04/10 10:57:23;;;;;;;;;;;;;;;9.94;56.00;98338.53;5085169;28;19928;-58
2022/04/10 10:59:52;;;;;;;;;;;;;;;10.01;55.36;98341.75;5070087;28;19947;-60
2022/04/10 11:02:19;;;;;;;;;;;;;;;10.00;56.04;98340.16;5091884;28;19928;-59
2022/04/10 11:04:50;;;;;;;;;;;;;;;9.90;56.29;98340.09;5074943;28;19924;-59
2022/04/10 11:07:19;;;;;;;;;;;;;;;9.78;55.94;98343.75;5070462;28;20019;-58
2022/04/10 11:10:00;;;;;;;;;;;;;;;9.60;57.15;98349.50;5071429;28;19925;-59
2022/04/10 11:12:32;;;;;;;;;;;;;;;9.54;56.20;98353.16;5071521;28;19934;-59
2022/04/10 11:15:02;;;;;;;;;;;;;;;9.35;56.24;98359.91;5071905;28;19924;-58
2022/04/10 11:17:29;;;;;;;;;;;;;;;9.41;56.47;98359.69;5090225;28;20389;-59
2022/04/10 11:20:02;;;;;;;;;;;;;;;9.57;55.77;98367.72;5085491;28;19950;-59
2022/04/10 11:22:35;;;;;;;;;;;;;;;9.58;56.10;98362.16;5069784;28;19928;-59
2022/04/10 11:25:09;;;;;;;;;;;;;;;9.60;55.77;98360.06;5086442;28;19924;-60
2022/04/10 11:27:50;;;;;;;;;;;;;;;9.55;55.31;98363.47;5071175;28;19929;-59
2022/04/10 11:30:39;;;;;;;;;;;;;;;9.66;55.72;98366.97;5080770;28;19968;-59
2022/04/10 11:33:05;;;;;;;;;;;;;;;9.67;54.81;98367.78;5058769;28;20019;-60
2022/04/10 11:35:32;;;;;;;;;;;;;;;9.70;55.31;98360.13;5073302;28;19931;-61
2022/04/10 11:37:58;;;;;;;;;;;;;;;9.77;55.19;98352.75;5092638;28;20317;-59
2022/04/10 11:40:30;;;;;;;;;;;;;;;9.71;55.09;98359.06;5095086;28;19931;-60
2022/04/10 11:42:57;;;;;;;;;;;;;;;9.64;54.68;98355.84;5093276;28;19935;-61
2022/04/10 11:45:24;;;;;;;;;;;;;;;9.57;55.50;98355.28;5075700;28;20015;-61
2022/04/10 11:47:49;;;;;;;;;;;;;;;9.53;55.87;98357.66;5073137;28;19928;-64
2022/04/10 11:50:18;;;;;;;;;;;;;;;9.40;55.74;98354.66;5082922;28;20323;-60
2022/04/10 11:52:56;;;;;;;;;;;;;;;9.62;56.02;98357.16;5067066;28;20380;-61
2022/04/10 11:55:27;;;;;;;;;;;;;;;9.66;54.58;98353.75;5074017;28;19931;-61
2022/04/10 11:57:57;;;;;;;;;;;;;;;9.68;54.72;98358.81;5072731;28;19932;-61
2022/04/10 12:00:26;;;;;;;;;;;;;;;9.72;54.63;98360.66;5049116;28;20344;-60
2022/04/10 12:02:53;;;;;;;;;;;;;;;9.73;54.75;98356.94;5090037;28;19924;-62
2022/04/10 12:05:19;;;;;;;;;;;;;;;9.70;54.93;98364.63;5090056;28;19931;-62
2022/04/10 12:07:45;;;;;;;;;;;;;;;9.68;54.98;98375.47;5092382;28;19928;-61
2022/04/10 12:10:10;;;;;;;;;;;;;;;9.69;54.29;98363.03;5054377;28;19931;-62
2022/04/10 12:12:37;;;;;;;;;;;;;;;9.87;54.14;98370.53;5074216;28;19973;-62
2022/04/10 12:15:03;;;;;;;;;;;;;;;9.82;53.86;98375.78;5094518;28;20026;-62
2022/04/10 12:17:29;;;;;;;;;;;;;;;9.85;53.52;98385.06;5093177;28;19935;-62
2022/04/10 12:19:55;;;;;;;;;;;;;;;10.06;53.43;98376.19;5093008;28;19924;-61
2022/04/10 12:22:21;;;;;;;;;;;;;;;10.11;53.45;98375.41;5092578;28;19928;-63
2022/04/10 12:24:47;;;;;;;;;;;;;;;10.08;53.40;98378.56;5075967;28;19931;-63
2022/04/10 12:27:13;;;;;;;;;;;;;;;10.10;53.43;98382.56;5088827;28;20519;-62
2022/04/10 12:29:39;;;;;;;;;;;;;;;10.05;53.49;98385.16;5072563;28;20384;-62
2022/04/10 12:32:04;;;;;;;;;;;;;;;10.09;53.89;98386.25;5046960;28;19938;-62
2022/04/10 12:34:34;;;;;;;;;;;;;;;10.12;53.37;98385.75;5052334;28;19931;-63
2022/04/10 12:37:09;;;;;;;;;;;;;;;10.09;52.93;98386.25;5077539;28;20366;-62
2022/04/10 12:39:35;;;;;;;;;;;;;;;9.99;53.66;98391.50;5075617;28;19928;-60
2022/04/10 12:42:01;;;;;;;;;;;;;;;10.05;54.19;98389.69;5091342;28;19987;-60
2022/04/10 12:44:27;;;;;;;;;;;;;;;10.05;52.61;98395.75;5084741;28;19924;-60
2022/04/10 12:46:52;;;;;;;;;;;;;;;10.16;52.34;98399.25;5082033;28;20313;-61
2022/04/10 12:49:18;;;;;;;;;;;;;;;10.07;53.87;98398.16;5079020;28;19923;-63
2022/04/10 12:51:50;;;;;;;;;;;;;;;9.85;54.20;98404.38;5093714;28;19985;-59
2022/04/10 12:54:16;;;;;;;;;;;;;;;9.95;53.47;98404.47;5090600;28;19983;-61
2022/04/10 12:56:41;;;;;;;;;;;;;;;9.91;53.48;98407.88;5073284;28;19951;-61
2022/04/10 12:59:07;;;;;;;;;;;;;;;10.01;54.11;98395.50;5072911;28;19935;-61
2022/04/10 13:01:33;;;;;;;;;;;;;;;10.23;52.91;98403.28;5078708;28;19950;-60
2022/04/10 13:03:59;;;;;;;;;;;;;;;10.42;52.63;98408.13;5092422;28;19973;-61
2022/04/10 13:06:45;;;;;;;;;;;;;;;10.50;52.15;98418.25;5073332;28;19960;-62
2022/04/10 13:09:13;;;;;;;;;;;;;;;10.40;51.02;98415.53;5056098;28;19967;-61
2022/04/10 13:11:39;;;;;;;;;;;;;;;10.56;51.13;98416.38;5091545;28;20014;-62
2022/04/10 13:14:06;;;;;;;;;;;;;;;10.76;50.49;98420.94;5066554;28;20026;-61
2022/04/10 13:16:35;;;;;;;;;;;;;;;10.81;49.88;98413.00;5072541;28;19976;-61
2022/04/10 13:19:02;;;;;;;;;;;;;;;10.95;49.35;98413.31;5078782;28;20034;-59
2022/04/10 13:21:27;;;;;;;;;;;;;;;10.94;48.18;98415.13;5083269;28;20022;-61
2022/04/10 13:23:53;;;;;;;;;;;;;;;10.98;48.19;98420.72;5077196;28;20066;-62